Time;durP1;ratioP1;P1;durP2;ratioP2;P2;SDS_P1;SDS_P2;PMS_P1;PMS_P2;Temp;Humidity;BMP_temperature;BMP_pressure;BME280_temperature;BME280_humidity;BME280_pressure;Samples;Min_cycle;Max_cycle;Signal;HPM_P1;HPM_P2
2023/10/20 00:02:22;;;;;;;16.50;7.70;;;12.40;99.90;;;;;;5084646;28;20184;-64
2023/10/20 00:04:48;;;;;;;19.57;8.53;;;12.40;99.90;;;;;;5087607;28;20951;-64
2023/10/20 00:07:14;;;;;;;11.50;7.47;;;12.40;99.90;;;;;;5090699;28;20419;-64
2023/10/20 00:09:39;;;;;;;12.03;8.00;;;12.50;99.90;;;;;;5087005;28;20556;-64
2023/10/20 00:12:05;;;;;;;11.57;6.73;;;12.40;99.90;;;;;;5086165;28;20219;-64
2023/10/20 00:14:31;;;;;;;13.03;7.40;;;12.40;99.90;;;;;;5086817;28;20192;-64
2023/10/20 00:16:57;;;;;;;12.03;6.33;;;12.30;99.90;;;;;;5087795;28;20185;-64
2023/10/20 00:19:22;;;;;;;15.57;7.20;;;12.30;99.90;;;;;;5086363;28;20228;-64
2023/10/20 00:21:48;;;;;;;13.70;6.43;;;12.40;99.90;;;;;;5090318;28;20221;-64
2023/10/20 00:24:13;;;;;;;15.07;5.67;;;12.30;99.90;;;;;;5086810;28;20521;-64
2023/10/20 00:26:39;;;;;;;10.50;6.23;;;12.30;99.90;;;;;;5086140;28;20180;-64
2023/10/20 00:29:05;;;;;;;13.23;6.47;;;12.40;99.90;;;;;;5089431;28;20210;-64
2023/10/20 00:31:32;;;;;;;14.17;6.80;;;12.40;99.90;;;;;;5085041;28;20180;-64
2023/10/20 00:33:57;;;;;;;10.10;5.47;;;12.40;99.90;;;;;;5085413;28;20455;-64
2023/10/20 00:36:23;;;;;;;8.67;5.30;;;12.30;99.90;;;;;;5089876;28;20433;-64
2023/10/20 00:38:48;;;;;;;9.80;6.47;;;12.30;99.90;;;;;;5084027;28;20234;-64
2023/10/20 00:41:14;;;;;;;9.90;5.40;;;12.30;99.90;;;;;;5086906;28;20194;-64
2023/10/20 00:43:40;;;;;;;7.43;5.37;;;12.30;99.90;;;;;;5087226;28;20196;-64
2023/10/20 00:46:07;;;;;;;7.60;4.97;;;12.30;99.90;;;;;;5090429;28;20214;-64
2023/10/20 00:48:35;;;;;;;12.67;5.57;;;12.30;99.90;;;;;;5085077;28;20177;-64
2023/10/20 00:51:02;;;;;;;9.93;5.10;;;12.30;99.90;;;;;;5087679;28;20433;-64
2023/10/20 00:53:29;;;;;;;9.87;4.63;;;12.30;99.90;;;;;;5085846;28;20479;-64
2023/10/20 00:55:56;;;;;;;8.80;5.80;;;12.30;99.90;;;;;;5087808;28;20410;-64
2023/10/20 00:58:27;;;;;;;8.97;5.43;;;12.40;99.90;;;;;;5083905;28;20476;-64
2023/10/20 01:00:53;;;;;;;11.53;7.20;;;12.30;99.90;;;;;;5087325;28;20891;-64
2023/10/20 01:03:19;;;;;;;14.93;5.60;;;12.30;99.90;;;;;;5085848;28;20417;-64
2023/10/20 01:05:46;;;;;;;11.87;5.50;;;12.30;99.90;;;;;;5089068;28;20180;-64
2023/10/20 01:08:13;;;;;;;10.07;5.13;;;12.30;99.90;;;;;;5085949;28;20613;-64
2023/10/20 01:10:39;;;;;;;12.00;5.67;;;12.20;99.90;;;;;;5087596;28;20484;-64
2023/10/20 01:13:05;;;;;;;8.07;4.63;;;12.30;99.90;;;;;;5087013;28;21249;-64
2023/10/20 01:15:31;;;;;;;12.33;5.83;;;12.30;99.90;;;;;;5083279;28;20177;-64
2023/10/20 01:17:56;;;;;;;7.23;4.73;;;12.30;99.90;;;;;;5088536;28;20514;-64
2023/10/20 01:20:23;;;;;;;8.20;5.10;;;12.40;99.90;;;;;;5086961;28;20463;-64
2023/10/20 01:22:49;;;;;;;9.20;5.70;;;12.40;99.90;;;;;;5085691;28;20571;-64
2023/10/20 01:25:15;;;;;;;9.80;6.00;;;12.40;99.90;;;;;;5086560;28;20433;-64
2023/10/20 01:27:41;;;;;;;10.90;4.90;;;12.40;99.90;;;;;;5087038;28;20429;-64
2023/10/20 01:30:07;;;;;;;8.97;5.80;;;12.40;99.90;;;;;;5085711;28;20434;-64
2023/10/20 01:32:33;;;;;;;11.23;5.70;;;12.40;99.90;;;;;;5087047;28;20180;-64
2023/10/20 01:34:58;;;;;;;9.27;5.00;;;12.40;99.90;;;;;;5082893;28;20456;-64
2023/10/20 01:37:24;;;;;;;9.43;5.20;;;12.40;99.90;;;;;;5088622;28;20185;-64
2023/10/20 01:39:50;;;;;;;7.60;4.67;;;12.30;99.90;;;;;;5085634;28;20307;-64
2023/10/20 01:42:15;;;;;;;12.13;5.60;;;12.30;99.90;;;;;;5086951;28;20184;-64
2023/10/20 01:44:41;;;;;;;9.10;5.33;;;12.30;99.90;;;;;;5088106;28;20259;-64
2023/10/20 01:47:07;;;;;;;6.73;4.20;;;12.30;99.90;;;;;;5089059;28;20173;-64
2023/10/20 01:49:32;;;;;;;6.50;5.30;;;12.30;99.90;;;;;;5084779;28;20223;-64
2023/10/20 01:51:58;;;;;;;10.80;4.50;;;12.30;99.90;;;;;;5083329;28;20241;-64
2023/10/20 01:54:24;;;;;;;9.57;5.93;;;12.30;99.90;;;;;;5087657;28;20187;-64
2023/10/20 01:56:50;;;;;;;12.17;5.67;;;12.30;99.90;;;;;;5086204;28;20191;-64
2023/10/20 01:59:15;;;;;;;9.80;5.83;;;12.30;99.90;;;;;;5085510;28;20463;-64
2023/10/20 02:01:42;;;;;;;11.50;5.50;;;12.30;99.90;;;;;;5088393;28;20605;-64
2023/10/20 02:04:07;;;;;;;7.90;4.80;;;12.30;99.90;;;;;;5086020;28;20206;-65
2023/10/20 02:06:34;;;;;;;11.53;6.37;;;12.20;99.90;;;;;;5085185;28;21013;-64
2023/10/20 02:09:01;;;;;;;7.77;5.70;;;12.30;99.90;;;;;;5087218;28;20590;-64
2023/10/20 02:11:27;;;;;;;16.30;6.50;;;12.20;99.90;;;;;;5089390;28;20429;-64
2023/10/20 02:13:53;;;;;;;11.40;5.50;;;12.20;99.90;;;;;;5085051;28;20438;-64
2023/10/20 02:16:19;;;;;;;11.57;6.63;;;12.20;99.90;;;;;;5088555;28;20741;-64
2023/10/20 02:18:44;;;;;;;10.37;6.03;;;12.20;99.90;;;;;;5085161;28;20430;-64
2023/10/20 02:21:10;;;;;;;10.50;5.53;;;12.20;99.90;;;;;;5088754;28;20239;-64
2023/10/20 02:23:38;;;;;;;8.80;5.40;;;12.20;99.90;;;;;;5085225;28;20557;-64
2023/10/20 02:26:06;;;;;;;8.20;3.97;;;12.20;99.90;;;;;;5084295;28;20172;-64
2023/10/20 02:28:32;;;;;;;7.10;4.90;;;12.20;99.90;;;;;;5083115;28;20464;-64
2023/10/20 02:31:00;;;;;;;6.63;4.27;;;12.20;99.90;;;;;;5087504;28;20448;-64
2023/10/20 02:33:26;;;;;;;10.00;5.63;;;12.20;99.90;;;;;;5085693;28;20443;-64
2023/10/20 02:35:54;;;;;;;7.90;4.87;;;12.20;99.90;;;;;;5084163;28;21523;-64
2023/10/20 02:38:20;;;;;;;8.43;4.00;;;12.20;99.90;;;;;;5085640;28;20738;-64
2023/10/20 02:40:53;;;;;;;8.20;4.53;;;12.20;99.90;;;;;;5086914;28;20485;-64
2023/10/20 02:43:19;;;;;;;8.10;5.20;;;12.20;99.90;;;;;;5086718;28;20436;-65
2023/10/20 02:45:54;;;;;;;6.90;4.30;;;12.20;99.90;;;;;;5084474;28;20430;-64
2023/10/20 02:48:24;;;;;;;7.73;4.20;;;12.20;99.90;;;;;;5084522;28;20426;-64
2023/10/20 02:50:50;;;;;;;12.27;4.07;;;12.20;99.90;;;;;;5086510;28;20446;-64
2023/10/20 02:53:16;;;;;;;6.17;4.20;;;12.30;99.90;;;;;;5087758;28;20430;-65
2023/10/20 02:55:45;;;;;;;9.30;4.80;;;12.20;99.90;;;;;;5082648;28;20454;-65
2023/10/20 02:58:12;;;;;;;10.97;4.90;;;12.20;99.90;;;;;;5097313;28;20454;-65
2023/10/20 03:00:45;;;;;;;6.83;4.10;;;12.20;99.90;;;;;;5104074;28;20468;-65
2023/10/20 03:03:12;;;;;;;9.33;5.87;;;12.30;99.90;;;;;;5105838;27;20508;-65
2023/10/20 03:05:43;;;;;;;9.87;5.10;;;12.30;99.90;;;;;;5110682;27;20516;-65
2023/10/20 03:08:09;;;;;;;7.27;4.30;;;12.20;99.90;;;;;;5109749;27;20432;-64
2023/10/20 03:10:35;;;;;;;10.93;4.93;;;12.20;99.90;;;;;;5110097;27;20432;-65
2023/10/20 03:13:02;;;;;;;15.83;6.00;;;12.30;99.90;;;;;;5105797;27;21819;-63
2023/10/20 03:15:27;;;;;;;7.30;4.63;;;12.20;99.90;;;;;;5106123;27;20521;-63
2023/10/20 03:17:53;;;;;;;22.57;6.07;;;12.20;99.90;;;;;;5109959;27;20424;-63
2023/10/20 03:20:24;;;;;;;8.10;5.40;;;12.20;99.90;;;;;;5111006;27;20253;-63
2023/10/20 03:22:51;;;;;;;9.67;5.50;;;12.20;99.90;;;;;;5107687;27;20180;-63
2023/10/20 03:25:18;;;;;;;5.50;3.87;;;12.10;99.90;;;;;;5099430;27;20765;-63
2023/10/20 03:27:44;;;;;;;12.10;4.53;;;12.10;99.90;;;;;;5108646;27;20445;-63
2023/10/20 03:30:09;;;;;;;12.13;5.80;;;12.10;99.90;;;;;;5109534;27;20435;-63
2023/10/20 03:32:35;;;;;;;7.70;5.97;;;12.10;99.90;;;;;;5108110;27;20183;-63
2023/10/20 03:35:01;;;;;;;9.50;5.30;;;12.00;99.90;;;;;;5108298;27;20271;-63
2023/10/20 03:37:27;;;;;;;7.80;4.83;;;12.00;99.90;;;;;;5110059;27;20184;-63
2023/10/20 03:39:53;;;;;;;6.80;4.77;;;12.00;99.90;;;;;;5107019;27;20215;-63
2023/10/20 03:42:18;;;;;;;9.67;5.73;;;12.10;99.90;;;;;;5107140;27;20489;-63
2023/10/20 03:44:47;;;;;;;7.13;4.40;;;12.20;99.90;;;;;;5110630;27;20950;-63
2023/10/20 03:47:14;;;;;;;6.97;4.40;;;12.20;99.90;;;;;;5110881;27;20182;-63
2023/10/20 03:49:39;;;;;;;13.77;5.40;;;12.00;99.90;;;;;;5108191;27;20936;-63
2023/10/20 03:52:11;;;;;;;16.47;5.53;;;12.00;99.90;;;;;;5111040;27;20421;-63
2023/10/20 03:54:41;;;;;;;7.20;4.50;;;12.10;99.90;;;;;;5100529;27;20536;-63
2023/10/20 03:57:06;;;;;;;6.30;4.17;;;12.10;99.90;;;;;;5110044;27;20515;-64
2023/10/20 03:59:32;;;;;;;8.93;4.67;;;12.10;99.90;;;;;;5107439;27;20507;-66
2023/10/20 04:01:58;;;;;;;6.10;4.17;;;12.00;99.90;;;;;;5110238;27;20179;-63
2023/10/20 04:04:23;;;;;;;8.73;5.10;;;12.00;99.90;;;;;;5104987;27;20554;-63
2023/10/20 04:06:49;;;;;;;8.03;5.30;;;12.00;99.90;;;;;;5110610;27;21547;-63
2023/10/20 04:09:18;;;;;;;8.20;4.47;;;12.10;99.90;;;;;;5108658;27;20186;-63
2023/10/20 04:11:44;;;;;;;10.23;5.17;;;12.00;99.90;;;;;;5107912;27;20432;-63
2023/10/20 04:14:12;;;;;;;7.70;4.37;;;12.00;99.90;;;;;;5108606;27;20449;-64
2023/10/20 04:16:41;;;;;;;8.00;4.50;;;12.10;99.90;;;;;;5107634;27;20548;-63
2023/10/20 04:19:12;;;;;;;16.30;5.80;;;12.00;99.90;;;;;;5108392;27;20502;-63
2023/10/20 04:21:40;;;;;;;6.40;4.73;;;12.00;99.90;;;;;;5103311;27;20524;-63
2023/10/20 04:24:07;;;;;;;27.63;5.90;;;12.00;99.90;;;;;;5106583;27;20429;-63
2023/10/20 04:26:35;;;;;;;7.70;4.70;;;12.00;99.90;;;;;;5108958;27;20556;-63
2023/10/20 04:41:49;;;;;;;7.57;5.23;;;12.00;99.90;;;;;;5106463;27;21018;-63
2023/10/20 04:43:34;;;;;;;15.93;6.10;;;11.90;99.90;;;;;;5109365;27;20444;-63
2023/10/20 04:48:19;;;;;;;10.50;6.13;;;11.90;99.90;;;;;;5098907;27;20441;-63
2023/10/20 05:04:06;;;;;;;13.87;7.50;;;11.80;99.90;;;;;;5106833;27;20253;-63
2023/10/20 05:06:42;;;;;;;22.90;8.40;;;11.80;99.90;;;;;;5104978;27;20521;-63
2023/10/20 05:09:14;;;;;;;19.50;9.03;;;11.70;99.90;;;;;;5105744;27;20513;-63
2023/10/20 05:11:43;;;;;;;11.20;7.40;;;11.80;99.90;;;;;;5106642;27;20461;-63
2023/10/20 05:14:08;;;;;;;11.37;7.33;;;11.70;99.90;;;;;;5106861;27;21038;-63
2023/10/20 05:16:34;;;;;;;16.30;8.40;;;11.80;99.90;;;;;;5101530;27;20425;-63
2023/10/20 05:19:04;;;;;;;11.30;7.40;;;11.70;99.90;;;;;;5105871;27;20199;-64
2023/10/20 05:21:33;;;;;;;20.53;8.63;;;11.70;99.90;;;;;;5107687;27;20476;-63
2023/10/20 05:24:05;;;;;;;24.73;9.33;;;11.70;99.90;;;;;;5107590;27;20788;-63
2023/10/20 05:26:31;;;;;;;18.03;8.77;;;11.70;99.90;;;;;;5106246;27;20413;-63
2023/10/20 05:28:58;;;;;;;15.10;8.30;;;11.80;99.90;;;;;;5104463;27;20428;-64
2023/10/20 05:31:29;;;;;;;14.80;9.33;;;11.80;99.90;;;;;;5094847;27;20421;-64
2023/10/20 05:33:55;;;;;;;19.67;9.63;;;11.70;99.90;;;;;;5094582;27;20520;-64
2023/10/20 05:36:20;;;;;;;17.77;8.90;;;11.60;99.90;;;;;;5095990;27;20608;-63
2023/10/20 05:38:47;;;;;;;16.70;10.17;;;11.70;99.90;;;;;;5086857;27;20251;-64
2023/10/20 05:41:12;;;;;;;20.90;8.73;;;11.70;99.90;;;;;;5084238;27;20176;-63
2023/10/20 05:43:38;;;;;;;14.50;9.27;;;11.70;99.90;;;;;;5079189;27;20432;-64
2023/10/20 05:46:04;;;;;;;20.00;8.20;;;11.60;99.90;;;;;;5075000;27;20177;-64
2023/10/20 05:48:31;;;;;;;13.13;9.43;;;11.60;99.90;;;;;;5073742;28;21364;-64
2023/10/20 05:50:57;;;;;;;16.30;8.70;;;11.50;99.90;;;;;;5067426;28;20214;-64
2023/10/20 05:53:24;;;;;;;19.17;9.37;;;11.60;99.90;;;;;;5064370;28;20433;-64
2023/10/20 05:55:50;;;;;;;29.97;10.13;;;11.60;99.90;;;;;;5063690;28;20433;-64
2023/10/20 05:58:16;;;;;;;13.27;8.07;;;11.60;99.90;;;;;;5054222;28;20427;-64
2023/10/20 06:00:42;;;;;;;14.37;7.70;;;11.60;99.90;;;;;;5072272;28;20208;-64
2023/10/20 06:03:08;;;;;;;17.13;8.50;;;11.60;99.90;;;;;;5073416;28;20172;-64
2023/10/20 06:05:34;;;;;;;16.20;8.80;;;11.50;99.90;;;;;;5069655;28;20423;-64
2023/10/20 06:08:00;;;;;;;17.57;7.47;;;11.60;99.90;;;;;;5079581;28;20261;-64
2023/10/20 06:10:25;;;;;;;12.90;7.80;;;11.70;99.90;;;;;;5076144;28;20209;-64
2023/10/20 06:12:54;;;;;;;16.83;8.97;;;11.50;99.90;;;;;;5087138;28;20196;-64
2023/10/20 06:15:20;;;;;;;17.17;8.50;;;11.50;99.90;;;;;;5096161;28;20174;-64
2023/10/20 06:17:47;;;;;;;13.80;7.83;;;11.50;99.90;;;;;;5094862;28;21847;-64
2023/10/20 06:20:14;;;;;;;17.60;8.87;;;11.50;99.90;;;;;;5086275;28;20464;-65
2023/10/20 06:22:41;;;;;;;12.40;7.53;;;11.60;99.90;;;;;;5096133;28;20500;-64
2023/10/20 06:25:12;;;;;;;15.97;8.47;;;11.50;99.90;;;;;;5099358;28;20433;-64
2023/10/20 06:27:46;;;;;;;14.70;8.70;;;11.60;99.90;;;;;;5102675;28;21281;-64
2023/10/20 06:30:22;;;;;;;12.33;8.50;;;11.60;99.90;;;;;;5092131;28;20447;-64
2023/10/20 06:32:56;;;;;;;12.00;8.00;;;11.60;99.90;;;;;;5103480;28;20983;-64
2023/10/20 06:35:32;;;;;;;10.57;7.00;;;11.60;99.90;;;;;;5100901;28;20433;-64
2023/10/20 06:40:32;;;;;;;12.10;7.43;;;11.60;99.90;;;;;;5099113;27;20472;-64
2023/10/20 06:42:58;;;;;;;15.47;8.07;;;11.60;99.90;;;;;;5106921;27;20440;-64
2023/10/20 06:45:23;;;;;;;15.33;7.40;;;11.70;99.90;;;;;;5108718;27;20236;-65
2023/10/20 06:47:49;;;;;;;16.53;8.30;;;11.60;99.90;;;;;;5110003;27;20225;-64
2023/10/20 06:50:15;;;;;;;13.30;8.37;;;11.70;99.90;;;;;;5111424;27;21020;-64
2023/10/20 06:52:40;;;;;;;13.00;7.70;;;11.80;99.90;;;;;;5109097;27;20188;-65
2023/10/20 06:55:07;;;;;;;12.67;7.80;;;11.80;99.90;;;;;;5104669;27;20198;-64
2023/10/20 06:57:33;;;;;;;11.73;7.17;;;11.80;99.90;;;;;;5107484;27;20241;-64
2023/10/20 06:59:59;;;;;;;14.53;7.87;;;11.80;99.90;;;;;;5108784;27;20461;-65
2023/10/20 07:02:25;;;;;;;15.70;8.40;;;11.90;99.90;;;;;;5105903;27;20433;-64
2023/10/20 07:04:50;;;;;;;11.63;7.10;;;11.90;99.90;;;;;;5105960;27;20175;-64
2023/10/20 07:07:17;;;;;;;11.83;6.90;;;11.90;99.90;;;;;;5109983;27;20217;-65
2023/10/20 07:09:44;;;;;;;14.67;8.37;;;11.90;99.90;;;;;;5109254;27;20175;-64
2023/10/20 07:12:10;;;;;;;13.30;8.10;;;12.00;99.90;;;;;;5107722;27;20438;-65
2023/10/20 07:14:38;;;;;;;11.53;8.00;;;12.00;99.90;;;;;;5109605;27;20474;-64
2023/10/20 07:17:06;;;;;;;12.80;7.07;;;12.00;99.90;;;;;;5110806;27;20492;-65
2023/10/20 07:19:34;;;;;;;13.70;7.40;;;12.10;99.90;;;;;;5104505;28;20558;-65
2023/10/20 07:22:02;;;;;;;17.20;8.53;;;12.00;99.90;;;;;;5104815;28;20739;-65
2023/10/20 07:24:28;;;;;;;13.93;7.10;;;12.10;99.90;;;;;;5105354;28;20471;-63
2023/10/20 07:26:54;;;;;;;9.43;5.87;;;12.00;99.90;;;;;;5114576;27;20522;-64
2023/10/20 07:29:20;;;;;;;12.00;7.03;;;12.10;99.90;;;;;;5101487;28;20453;-65
2023/10/20 07:31:47;;;;;;;15.70;7.43;;;12.10;99.90;;;;;;5108185;27;20188;-64
2023/10/20 07:34:13;;;;;;;10.80;6.40;;;12.10;99.90;;;;;;5105605;27;20179;-64
2023/10/20 07:36:40;;;;;;;13.33;7.90;;;12.10;99.90;;;;;;5112469;27;20425;-65
2023/10/20 07:39:08;;;;;;;11.30;6.40;;;12.10;99.90;;;;;;5087074;28;20504;-65
2023/10/20 07:41:35;;;;;;;11.57;6.60;;;12.20;99.90;;;;;;5087385;28;20437;-65
2023/10/20 07:44:01;;;;;;;14.23;7.33;;;12.20;99.90;;;;;;5089667;28;20441;-65
2023/10/20 07:46:27;;;;;;;10.27;6.30;;;12.30;99.90;;;;;;5075882;28;20419;-64
2023/10/20 07:48:53;;;;;;;11.37;6.70;;;12.30;99.90;;;;;;5073980;28;20974;-65
2023/10/20 07:51:18;;;;;;;8.90;6.40;;;12.40;99.90;;;;;;5071435;28;20641;-65
2023/10/20 07:53:44;;;;;;;10.30;5.17;;;12.40;99.90;;;;;;5072887;28;20173;-65
2023/10/20 07:56:10;;;;;;;11.20;6.40;;;12.40;99.90;;;;;;5076547;28;20185;-65
2023/10/20 07:58:36;;;;;;;31.37;10.77;;;12.50;99.90;;;;;;5078211;28;20225;-65
2023/10/20 08:01:02;;;;;;;17.80;8.73;;;12.50;99.90;;;;;;5052521;28;20207;-65
2023/10/20 08:03:28;;;;;;;33.80;11.47;;;12.50;99.90;;;;;;5074269;28;20430;-65
2023/10/20 08:05:53;;;;;;;18.07;9.33;;;12.60;99.90;;;;;;5070492;28;20249;-65
2023/10/20 08:08:19;;;;;;;22.60;9.67;;;12.60;99.90;;;;;;5073335;28;20313;-64
2023/10/20 08:10:45;;;;;;;19.93;9.90;;;12.70;99.90;;;;;;5072489;28;20180;-65
2023/10/20 08:13:10;;;;;;;15.97;9.17;;;12.70;99.90;;;;;;5067356;28;20189;-65
2023/10/20 08:15:38;;;;;;;14.97;8.10;;;12.70;99.90;;;;;;5068401;28;20703;-64
2023/10/20 08:18:07;;;;;;;12.30;7.60;;;12.80;99.90;;;;;;5087857;28;20184;-65
2023/10/20 08:20:33;;;;;;;11.93;6.37;;;12.80;99.90;;;;;;5089156;28;20462;-64
2023/10/20 08:23:00;;;;;;;16.20;8.17;;;12.80;99.90;;;;;;5091788;28;20510;-64
2023/10/20 08:25:25;;;;;;;16.07;7.57;;;12.80;99.90;;;;;;5094343;28;20176;-64
2023/10/20 08:27:51;;;;;;;11.30;6.27;;;12.90;99.90;;;;;;5087748;28;20430;-64
2023/10/20 08:30:18;;;;;;;13.03;6.60;;;12.90;99.90;;;;;;5079409;28;20188;-65
2023/10/20 08:32:44;;;;;;;12.00;7.30;;;12.90;99.90;;;;;;5086125;28;20180;-66
2023/10/20 08:35:09;;;;;;;22.13;8.70;;;12.90;99.90;;;;;;5079577;28;20905;-65
2023/10/20 08:37:36;;;;;;;12.30;7.33;;;13.20;99.90;;;;;;5087444;28;20224;-65
2023/10/20 08:40:02;;;;;;;14.70;7.53;;;13.20;99.90;;;;;;5083619;28;20208;-65
2023/10/20 08:42:29;;;;;;;9.70;5.77;;;13.40;99.90;;;;;;5097550;28;20415;-65
2023/10/20 08:44:56;;;;;;;12.00;6.70;;;13.50;99.90;;;;;;5085225;28;20440;-65
2023/10/20 08:47:23;;;;;;;8.80;5.40;;;13.50;99.90;;;;;;5095686;28;20890;-65
2023/10/20 08:49:49;;;;;;;7.03;4.60;;;13.60;99.90;;;;;;5090110;28;20866;-65
2023/10/20 08:52:15;;;;;;;9.10;5.00;;;13.60;99.90;;;;;;5098393;28;20505;-65
2023/10/20 08:54:41;;;;;;;12.23;5.27;;;13.60;99.90;;;;;;5096280;28;20521;-65
2023/10/20 08:57:08;;;;;;;11.97;5.17;;;13.70;99.90;;;;;;5085924;28;20892;-64
2023/10/20 08:59:35;;;;;;;15.43;6.20;;;13.70;99.90;;;;;;5077339;28;20211;-65
2023/10/20 09:02:02;;;;;;;11.10;6.27;;;13.90;99.90;;;;;;5088715;28;20406;-65
2023/10/20 09:04:28;;;;;;;9.13;5.40;;;13.90;99.90;;;;;;5086739;28;20527;-64
2023/10/20 09:06:54;;;;;;;8.20;4.30;;;13.90;99.90;;;;;;5102365;28;20410;-64
2023/10/20 09:09:20;;;;;;;6.70;4.90;;;14.00;99.90;;;;;;5087933;28;20610;-64
2023/10/20 09:11:47;;;;;;;10.47;4.87;;;14.00;99.90;;;;;;5086679;28;20987;-64
2023/10/20 09:14:14;;;;;;;7.70;4.47;;;14.00;99.90;;;;;;5089185;28;20184;-64
2023/10/20 09:16:41;;;;;;;8.10;5.17;;;14.10;99.90;;;;;;5089482;28;20414;-64
2023/10/20 09:19:10;;;;;;;7.73;4.30;;;14.10;99.90;;;;;;5087433;28;20788;-64
2023/10/20 09:21:39;;;;;;;8.23;4.43;;;14.10;99.90;;;;;;5107584;28;20432;-64
2023/10/20 09:24:07;;;;;;;7.37;4.37;;;14.10;99.90;;;;;;5104155;28;20410;-64
2023/10/20 09:26:38;;;;;;;5.80;3.37;;;14.10;99.90;;;;;;5115128;27;20436;-64
2023/10/20 09:29:05;;;;;;;6.50;3.90;;;14.20;99.90;;;;;;5096674;28;20414;-64
2023/10/20 09:31:32;;;;;;;9.60;4.00;;;14.40;99.90;;;;;;5107475;28;20908;-65
2023/10/20 09:33:58;;;;;;;7.00;4.27;;;14.30;99.90;;;;;;5110608;27;20410;-65
2023/10/20 09:36:24;;;;;;;6.37;4.00;;;14.40;99.90;;;;;;5103195;28;21231;-65
2023/10/20 09:38:52;;;;;;;6.73;3.33;;;14.60;99.90;;;;;;5097096;27;20219;-65
2023/10/20 09:41:22;;;;;;;5.50;2.87;;;14.90;99.90;;;;;;5106300;27;20417;-66
2023/10/20 09:43:52;;;;;;;5.30;3.43;;;15.00;99.90;;;;;;5106533;27;20877;-65
2023/10/20 09:46:27;;;;;;;10.00;3.17;;;15.10;99.90;;;;;;5101141;28;20461;-65
2023/10/20 09:48:55;;;;;;;6.57;2.80;;;15.10;99.90;;;;;;5103493;27;20428;-65
2023/10/20 09:51:21;;;;;;;6.63;2.50;;;15.20;99.90;;;;;;5109674;28;20951;-66
2023/10/20 09:53:48;;;;;;;6.50;3.27;;;15.50;99.90;;;;;;5103556;28;20433;-65
2023/10/20 09:56:15;;;;;;;4.77;2.47;;;15.50;99.90;;;;;;5105399;28;20182;-65
2023/10/20 09:58:41;;;;;;;6.60;2.43;;;15.70;99.90;;;;;;5111295;28;20417;-65
2023/10/20 10:01:07;;;;;;;7.67;2.57;;;15.80;99.90;;;;;;5119304;28;20492;-65
2023/10/20 10:03:37;;;;;;;3.83;1.70;;;15.90;99.90;;;;;;5107722;28;20434;-65
2023/10/20 10:06:09;;;;;;;3.13;1.73;;;15.90;99.90;;;;;;5111354;28;20424;-65
2023/10/20 10:08:38;;;;;;;6.73;2.07;;;15.80;99.90;;;;;;5104886;28;20542;-65
2023/10/20 10:11:27;;;;;;;4.07;2.13;;;15.90;99.90;;;;;;5108182;27;20888;-65
2023/10/20 10:14:01;;;;;;;3.33;1.83;;;16.00;99.90;;;;;;5107774;27;20430;-65
2023/10/20 10:16:27;;;;;;;3.20;1.90;;;16.00;99.90;;;;;;5119884;27;20405;-65
2023/10/20 10:18:54;;;;;;;4.80;2.00;;;16.00;99.90;;;;;;5113519;27;20508;-65
2023/10/20 10:21:25;;;;;;;4.77;2.13;;;15.80;99.90;;;;;;5118050;27;20782;-65
2023/10/20 10:24:18;;;;;;;3.73;2.20;;;15.90;99.90;;;;;;5107175;28;20907;-65
2023/10/20 10:27:04;;;;;;;2.77;1.33;;;16.00;99.90;;;;;;5109872;27;20417;-65
2023/10/20 10:32:36;;;;;;;1.87;1.10;;;15.90;99.90;;;;;;5107617;27;20425;-65
2023/10/20 10:35:08;;;;;;;2.37;1.50;;;16.00;99.90;;;;;;5116057;27;20805;-65
2023/10/20 10:37:36;;;;;;;1.30;0.70;;;15.90;99.90;;;;;;5118764;27;20458;-65
2023/10/20 10:40:09;;;;;;;3.77;0.90;;;15.90;99.90;;;;;;5112031;27;20489;-65
2023/10/20 10:42:49;;;;;;;1.47;0.60;;;15.90;99.90;;;;;;5110237;27;20517;-65
2023/10/20 10:45:22;;;;;;;1.50;0.57;;;16.00;99.90;;;;;;5108244;27;20417;-65
2023/10/20 10:47:49;;;;;;;1.50;0.70;;;16.00;99.90;;;;;;5109584;28;20418;-64
2023/10/20 10:50:16;;;;;;;8.73;0.77;;;15.90;99.90;;;;;;5109045;28;20409;-65
2023/10/20 10:52:43;;;;;;;2.27;1.00;;;16.00;99.90;;;;;;5109442;28;20441;-64
2023/10/20 10:55:09;;;;;;;1.67;0.97;;;16.20;99.90;;;;;;5105140;27;20579;-65
2023/10/20 10:57:35;;;;;;;3.40;1.33;;;16.20;99.90;;;;;;5115908;27;20423;-65
2023/10/20 11:00:03;;;;;;;1.60;0.63;;;16.20;99.90;;;;;;5113501;27;20960;-65
2023/10/20 11:02:29;;;;;;;1.87;0.83;;;16.20;99.90;;;;;;5110931;28;20420;-65
2023/10/20 11:04:55;;;;;;;1.40;0.60;;;16.10;99.90;;;;;;5113590;27;20453;-64
2023/10/20 11:07:22;;;;;;;1.20;0.50;;;16.10;99.90;;;;;;5109666;27;20448;-64
2023/10/20 11:09:47;;;;;;;1.40;0.70;;;16.00;99.90;;;;;;5101801;27;20209;-65
2023/10/20 11:12:13;;;;;;;1.30;0.60;;;16.00;99.90;;;;;;5102716;27;20791;-65
2023/10/20 11:14:39;;;;;;;1.47;0.67;;;15.90;99.90;;;;;;5110185;27;20180;-65
2023/10/20 11:17:05;;;;;;;2.23;0.50;;;16.00;99.90;;;;;;5115370;27;20756;-64
2023/10/20 11:19:31;;;;;;;1.17;0.47;;;16.00;99.90;;;;;;5108186;27;20199;-65
2023/10/20 11:21:57;;;;;;;1.40;0.50;;;16.00;99.90;;;;;;5108414;27;20628;-64
2023/10/20 11:24:34;;;;;;;1.40;0.60;;;16.10;99.90;;;;;;5107542;27;20184;-65
2023/10/20 11:27:01;;;;;;;1.30;0.50;;;16.20;99.90;;;;;;5108698;27;20176;-65
2023/10/20 11:29:29;;;;;;;1.67;0.53;;;16.20;99.90;;;;;;5104799;27;20909;-65
2023/10/20 11:31:56;;;;;;;1.10;0.40;;;16.10;99.90;;;;;;5105302;27;20917;-65
2023/10/20 11:34:23;;;;;;;1.20;0.50;;;16.10;99.90;;;;;;5106051;27;20474;-65
2023/10/20 11:36:48;;;;;;;1.20;0.40;;;16.00;99.90;;;;;;5100788;27;21060;-65
2023/10/20 11:39:15;;;;;;;1.20;0.40;;;15.90;99.90;;;;;;5106909;27;20484;-65
2023/10/20 11:41:41;;;;;;;1.93;0.50;;;15.90;99.90;;;;;;5106320;27;20318;-65
2023/10/20 11:44:07;;;;;;;1.13;0.40;;;15.90;99.90;;;;;;5107122;27;20428;-64
2023/10/20 11:46:34;;;;;;;1.20;0.50;;;15.80;99.90;;;;;;5093084;27;20768;-64
2023/10/20 11:48:59;;;;;;;1.20;0.40;;;15.90;99.90;;;;;;5106592;27;20436;-64
2023/10/20 11:51:25;;;;;;;1.30;0.50;;;16.00;99.90;;;;;;5107330;27;20988;-64
2023/10/20 11:53:51;;;;;;;1.53;0.50;;;15.90;99.90;;;;;;5107156;27;20184;-64
2023/10/20 11:56:17;;;;;;;1.20;0.47;;;15.90;99.90;;;;;;5105535;27;20179;-64
2023/10/20 11:58:42;;;;;;;1.20;0.40;;;15.90;99.90;;;;;;5107217;27;21050;-64
2023/10/20 12:01:08;;;;;;;1.23;0.53;;;15.90;99.90;;;;;;5105508;27;20231;-64
2023/10/20 12:03:33;;;;;;;1.20;0.50;;;16.00;99.90;;;;;;5101384;27;20192;-65
2023/10/20 12:05:59;;;;;;;1.40;0.50;;;16.00;99.90;;;;;;5104861;27;20185;-64
2023/10/20 12:08:25;;;;;;;1.30;0.60;;;16.00;99.90;;;;;;5104095;27;20195;-64
2023/10/20 12:10:50;;;;;;;1.20;0.50;;;16.10;99.90;;;;;;5106205;27;20187;-65
2023/10/20 12:13:16;;;;;;;1.50;0.70;;;16.10;99.90;;;;;;5108946;27;20581;-65
2023/10/20 12:15:42;;;;;;;1.30;0.50;;;16.20;99.90;;;;;;5113221;27;20236;-65
2023/10/20 12:18:07;;;;;;;1.97;0.70;;;16.30;99.90;;;;;;5113751;27;20199;-64
2023/10/20 12:20:33;;;;;;;11.50;1.03;;;16.40;99.90;;;;;;5113354;27;20211;-64
2023/10/20 12:22:59;;;;;;;4.13;1.00;;;16.40;99.90;;;;;;5108544;27;20662;-64
2023/10/20 12:25:25;;;;;;;2.70;0.90;;;16.50;99.90;;;;;;5109665;27;20204;-64
2023/10/20 12:27:52;;;;;;;2.60;0.87;;;16.70;99.90;;;;;;5108485;27;20468;-65
2023/10/20 12:30:17;;;;;;;5.10;1.00;;;16.80;99.90;;;;;;5106676;27;20436;-64
2023/10/20 12:32:43;;;;;;;7.23;1.03;;;16.60;99.90;;;;;;5103096;27;20441;-64
2023/10/20 12:35:13;;;;;;;1.70;0.70;;;16.50;99.90;;;;;;5112374;27;20210;-64
2023/10/20 12:37:39;;;;;;;1.63;0.60;;;16.30;99.90;;;;;;5106498;27;20220;-64
2023/10/20 12:40:05;;;;;;;2.63;1.03;;;16.20;99.90;;;;;;5113233;27;20462;-64
2023/10/20 12:42:32;;;;;;;3.20;0.80;;;16.10;99.90;;;;;;5093792;27;20187;-64
2023/10/20 12:45:00;;;;;;;3.10;1.03;;;16.20;99.90;;;;;;5097743;27;20468;-64
2023/10/20 12:47:26;;;;;;;16.27;0.97;;;16.10;99.90;;;;;;5094842;27;20429;-64
2023/10/20 12:49:55;;;;;;;2.10;0.60;;;16.10;99.90;;;;;;5095525;27;20417;-64
2023/10/20 12:52:21;;;;;;;1.77;0.70;;;16.10;99.90;;;;;;5095725;27;20203;-64
2023/10/20 12:54:46;;;;;;;2.00;0.90;;;16.10;99.90;;;;;;5095758;28;20429;-64
2023/10/20 12:57:12;;;;;;;1.20;0.50;;;16.10;99.90;;;;;;5094458;28;20421;-64
2023/10/20 12:59:38;;;;;;;5.00;0.50;;;16.00;99.90;;;;;;5085309;27;20239;-64
2023/10/20 13:02:04;;;;;;;1.40;0.60;;;16.10;99.90;;;;;;5101339;27;20218;-64
2023/10/20 13:04:33;;;;;;;1.20;0.40;;;16.20;99.90;;;;;;5096898;27;20186;-64
2023/10/20 13:06:59;;;;;;;2.40;0.60;;;16.00;99.90;;;;;;5095717;27;20188;-64
2023/10/20 13:09:25;;;;;;;2.47;0.87;;;16.00;99.90;;;;;;5096199;27;20473;-62
2023/10/20 13:11:50;;;;;;;1.77;0.60;;;16.00;99.90;;;;;;5105099;27;20187;-64
2023/10/20 13:14:16;;;;;;;1.80;0.80;;;16.00;99.90;;;;;;5104407;27;20191;-64
2023/10/20 13:16:42;;;;;;;1.60;0.60;;;16.00;99.90;;;;;;5107671;27;20724;-64